createdAt,value
2018-03-18T00:00:20.911Z,16.5
2018-03-18T00:01:10.991Z,16.5
2018-03-18T00:02:00.691Z,16.5
2018-03-18T00:02:50.418Z,16.4
2018-03-18T00:03:40.926Z,16.5
2018-03-18T00:04:31.158Z,16.4
2018-03-18T00:05:21.208Z,16.4
2018-03-18T00:06:11.264Z,16.4
2018-03-18T00:07:01.894Z,16.4
2018-03-18T00:07:51.181Z,16.4
2018-03-18T00:08:41.744Z,16.4
2018-03-18T00:09:31.531Z,16.4
2018-03-18T00:10:21.863Z,16.4
2018-03-18T00:11:11.926Z,16.4
2018-03-18T00:12:01.679Z,16.4
2018-03-18T00:12:51.642Z,16.4
2018-03-18T00:13:41.656Z,16.4
2018-03-18T00:14:31.970Z,16.4
2018-03-18T00:15:21.924Z,16.4
2018-03-18T00:16:11.704Z,16.4
2018-03-18T00:17:02.036Z,16.3
2018-03-18T00:17:52.126Z,16.3
2018-03-18T00:18:42.183Z,16.4
2018-03-18T00:19:32.025Z,16.3
2018-03-18T00:20:22.650Z,16.3
2018-03-18T00:21:12.440Z,16.3
2018-03-18T00:22:02.416Z,16.3
2018-03-18T00:22:52.469Z,16.3
2018-03-18T00:23:42.335Z,16.3
2018-03-18T00:24:32.406Z,16.3
2018-03-18T00:25:22.367Z,16.3
2018-03-18T00:26:12.813Z,16.3
2018-03-18T00:27:03.073Z,16.3
2018-03-18T00:27:53.125Z,16.3
2018-03-18T00:28:42.892Z,16.3
2018-03-18T00:29:32.557Z,16.3
2018-03-18T00:30:23.574Z,16.3
2018-03-18T00:31:13.069Z,16.3
2018-03-18T00:32:03.190Z,16.3
2018-03-18T00:32:53.469Z,16.3
2018-03-18T00:33:43.062Z,16.3
2018-03-18T00:34:33.009Z,16.3
2018-03-18T00:35:23.384Z,16.3
2018-03-18T00:36:13.745Z,16.3
2018-03-18T00:37:03.215Z,16.3
2018-03-18T00:37:53.272Z,16.3
2018-03-18T00:38:43.417Z,16.3
2018-03-18T00:39:33.678Z,16.3
2018-03-18T00:40:23.879Z,16.3
2018-03-18T00:41:14.066Z,16.3
2018-03-18T00:42:04.424Z,16.3
2018-03-18T00:42:53.739Z,16.3
2018-03-18T00:43:43.704Z,16.3
2018-03-18T00:44:34.610Z,16.3
2018-03-18T00:45:24.372Z,16.3
2018-03-18T00:46:14.745Z,16.3
2018-03-18T00:47:04.014Z,16.3
2018-03-18T00:47:54.279Z,16.3
2018-03-18T00:48:44.727Z,16.3
2018-03-18T00:49:34.969Z,16.3
2018-03-18T00:50:24.747Z,16.3
2018-03-18T00:51:14.233Z,16.3
2018-03-18T00:52:04.869Z,16.3
2018-03-18T00:52:54.626Z,16.3
2018-03-18T00:53:45.021Z,16.3
2018-03-18T00:54:34.876Z,16.3
2018-03-18T00:55:25.136Z,16.3
2018-03-18T00:56:15.206Z,16.3
2018-03-18T00:57:05.223Z,16.3
2018-03-18T00:57:54.998Z,16.3
2018-03-18T00:58:45.063Z,16.3
2018-03-18T00:59:35.130Z,16.3
2018-03-18T01:00:25.471Z,16.3
2018-03-18T01:01:15.343Z,16.3
2018-03-18T01:02:05.589Z,16.3
2018-03-18T01:02:55.653Z,16.3
2018-03-18T01:03:45.773Z,16.3
2018-03-18T01:04:35.630Z,16.3
2018-03-18T01:05:25.638Z,16.3
2018-03-18T01:06:15.309Z,16.3
2018-03-18T01:07:05.062Z,16.3
2018-03-18T01:07:55.726Z,16.3
2018-03-18T01:08:45.780Z,16.3
2018-03-18T01:09:36.125Z,16.4
2018-03-18T01:10:25.673Z,16.4
2018-03-18T01:11:16.052Z,16.4
2018-03-18T01:12:05.454Z,16.4
2018-03-18T01:12:55.985Z,16.4
2018-03-18T01:13:46.167Z,16.4
2018-03-18T01:14:35.725Z,16.3
2018-03-18T01:15:25.791Z,16.4
2018-03-18T01:16:16.047Z,16.3
2018-03-18T01:17:06.465Z,16.3
2018-03-18T01:17:56.729Z,16.3
2018-03-18T01:18:46.404Z,16.4
2018-03-18T01:19:36.375Z,16.4
2018-03-18T01:20:26.929Z,16.3
2018-03-18T01:21:16.805Z,16.3
2018-03-18T01:22:06.750Z,16.3
2018-03-18T01:22:57.408Z,16.3
2018-03-18T01:23:46.674Z,16.3
2018-03-18T01:24:36.750Z,16.4
2018-03-18T01:25:27.272Z,16.4
2018-03-18T01:26:16.944Z,16.3
2018-03-18T01:27:07.402Z,16.3
2018-03-18T01:27:56.945Z,16.3
2018-03-18T01:28:47.063Z,16.3
2018-03-18T01:29:37.584Z,16.3
2018-03-18T01:30:27.453Z,16.3
2018-03-18T01:31:17.136Z,16.3
2018-03-18T01:32:07.667Z,16.3
2018-03-18T01:32:57.546Z,16.3
2018-03-18T01:33:48.186Z,16.3
2018-03-18T01:34:37.989Z,16.3
2018-03-18T01:35:27.727Z,16.3
2018-03-18T01:36:18.056Z,16.3
2018-03-18T01:37:08.139Z,16.3
2018-03-18T01:37:58.197Z,16.3
2018-03-18T01:38:48.250Z,16.3
2018-03-18T01:39:38.323Z,16.3
2018-03-18T01:40:28.172Z,16.3
2018-03-18T01:41:17.848Z,16.3
2018-03-18T01:42:08.398Z,16.3
2018-03-18T01:42:58.287Z,16.3
2018-03-18T01:43:48.624Z,16.3
2018-03-18T01:44:38.996Z,16.3
2018-03-18T01:45:28.339Z,16.3
2018-03-18T01:46:18.686Z,16.3
2018-03-18T01:47:08.273Z,16.3
2018-03-18T01:47:59.218Z,16.3
2018-03-18T01:48:48.571Z,16.3
2018-03-18T01:49:39.069Z,16.3
2018-03-18T01:50:28.892Z,16.3
2018-03-18T01:51:18.867Z,16.3
2018-03-18T01:52:08.943Z,16.3
2018-03-18T01:52:58.995Z,16.3
2018-03-18T01:53:49.602Z,16.2
2018-03-18T01:54:39.005Z,16.2
2018-03-18T01:55:29.461Z,16.2
2018-03-18T01:56:18.657Z,16.2
2018-03-18T01:57:09.299Z,16.2
2018-03-18T01:57:59.054Z,16.2
2018-03-18T01:58:49.524Z,16.2
2018-03-18T01:59:39.268Z,16.2
2018-03-18T02:00:29.327Z,16.1
2018-03-18T02:01:19.316Z,16.1
2018-03-18T02:02:09.459Z,16.1
2018-03-18T02:03:00.081Z,16.1
2018-03-18T02:03:49.857Z,16.1
2018-03-18T02:04:39.627Z,16.1
2018-03-18T02:05:29.597Z,16.1
2018-03-18T02:06:19.674Z,16.1
2018-03-18T02:07:10.013Z,16.2
2018-03-18T02:08:00.469Z,16.1
2018-03-18T02:08:50.237Z,16.1
2018-03-18T02:09:39.911Z,16.1
2018-03-18T02:10:30.269Z,16.1
2018-03-18T02:11:20.709Z,16.1
2018-03-18T02:12:10.690Z,16.1
2018-03-18T02:12:59.946Z,16.1
2018-03-18T02:13:50.510Z,16.1
2018-03-18T02:14:40.372Z,16.2
2018-03-18T02:15:30.884Z,16.1
2018-03-18T02:16:21.263Z,16.1
2018-03-18T02:17:10.732Z,16.1
2018-03-18T02:18:00.220Z,16.1
2018-03-18T02:18:50.558Z,16.1
2018-03-18T02:19:40.533Z,16.1
2018-03-18T02:20:30.978Z,16.1
2018-03-18T02:21:21.153Z,16.1
2018-03-18T02:22:10.898Z,16.1
2018-03-18T02:23:00.963Z,16.1
2018-03-18T02:23:51.239Z,16.1
2018-03-18T02:24:41.083Z,16.1
2018-03-18T02:25:31.635Z,16.1
2018-03-18T02:26:21.995Z,16.1
2018-03-18T02:27:11.858Z,16.1
2018-03-18T02:28:01.220Z,16.1
2018-03-18T02:28:51.876Z,16.1
2018-03-18T02:29:42.226Z,16.1
2018-03-18T02:30:32.029Z,16.1
2018-03-18T02:31:21.765Z,16.1
2018-03-18T02:32:12.112Z,16.1
2018-03-18T02:33:01.697Z,16.1
2018-03-18T02:33:52.392Z,16.1
2018-03-18T02:34:42.302Z,16.1
2018-03-18T02:35:31.770Z,16.1
2018-03-18T02:36:21.846Z,16.1
2018-03-18T02:37:12.488Z,16.1
2018-03-18T02:38:02.258Z,16.1
2018-03-18T02:38:52.304Z,16.1
2018-03-18T02:39:42.180Z,16.1
2018-03-18T02:40:33.012Z,16.1
2018-03-18T02:41:23.079Z,16.1
2018-03-18T02:42:12.655Z,16.1
2018-03-18T02:43:03.162Z,16.1
2018-03-18T02:43:52.971Z,16.1
2018-03-18T02:44:43.044Z,16.1
2018-03-18T02:45:32.892Z,16.1
2018-03-18T02:46:23.186Z,16.1
2018-03-18T02:47:13.020Z,16.1
2018-03-18T02:48:03.570Z,16.2
2018-03-18T02:48:53.613Z,16.2
2018-03-18T02:49:43.380Z,16.2
2018-03-18T02:50:33.461Z,16.2
2018-03-18T02:51:23.231Z,16.2
2018-03-18T02:52:13.667Z,16.2
2018-03-18T02:53:03.651Z,16.3
2018-03-18T02:53:53.402Z,16.3
2018-03-18T02:54:43.465Z,16.3
2018-03-18T02:55:33.528Z,16.2
2018-03-18T02:56:23.392Z,16.2
2018-03-18T02:57:13.432Z,16.3
2018-03-18T02:58:03.705Z,16.3
2018-03-18T02:58:53.768Z,16.2
2018-03-18T02:59:43.815Z,16.3
2018-03-18T03:00:34.462Z,16.3
2018-03-18T03:01:23.944Z,16.3
2018-03-18T03:02:14.017Z,16.3
2018-03-18T03:03:03.873Z,16.3
2018-03-18T03:03:54.427Z,16.3
2018-03-18T03:04:44.516Z,16.3
2018-03-18T03:05:34.042Z,16.3
2018-03-18T03:06:24.601Z,16.3
2018-03-18T03:07:14.082Z,16.3
2018-03-18T03:08:04.510Z,16.3
2018-03-18T03:08:54.509Z,16.3
2018-03-18T03:09:44.261Z,16.3
2018-03-18T03:10:34.589Z,16.3
2018-03-18T03:11:25.272Z,16.2
2018-03-18T03:12:15.001Z,16.3
2018-03-18T03:13:05.185Z,16.3
2018-03-18T03:13:54.916Z,16.3
2018-03-18T03:14:45.023Z,16.3
2018-03-18T03:15:35.522Z,16.3
2018-03-18T03:16:25.313Z,16.2
2018-03-18T03:17:15.374Z,16.3
2018-03-18T03:18:05.428Z,16.3
2018-03-18T03:18:55.761Z,16.3
2018-03-18T03:19:45.538Z,16.3
2018-03-18T03:20:35.628Z,16.3
2018-03-18T03:21:25.947Z,16.3
2018-03-18T03:22:15.725Z,16.3
2018-03-18T03:23:05.780Z,16.3
2018-03-18T03:23:56.157Z,16.3
2018-03-18T03:24:45.921Z,16.3
2018-03-18T03:25:36.246Z,16.3
2018-03-18T03:26:26.025Z,16.3
2018-03-18T03:27:16.092Z,16.3
2018-03-18T03:28:06.469Z,16.3
2018-03-18T03:28:56.504Z,16.3
2018-03-18T03:29:46.598Z,16.3
2018-03-18T03:30:36.714Z,16.3
2018-03-18T03:31:26.134Z,16.3
2018-03-18T03:32:16.191Z,16.3
2018-03-18T03:33:05.942Z,16.3
2018-03-18T03:33:56.558Z,16.3
2018-03-18T03:34:46.906Z,16.3
2018-03-18T03:35:36.985Z,16.3
2018-03-18T03:36:26.747Z,16.3
2018-03-18T03:37:16.535Z,16.2
2018-03-18T03:38:07.188Z,16.2
2018-03-18T03:38:57.247Z,16.2
2018-03-18T03:39:47.005Z,16.2
2018-03-18T03:40:37.038Z,16.2
2018-03-18T03:41:27.154Z,16.2
2018-03-18T03:42:17.512Z,16.2
2018-03-18T03:43:07.514Z,16.2
2018-03-18T03:43:57.322Z,16.2
2018-03-18T03:44:47.645Z,16.2
2018-03-18T03:45:37.712Z,16.1
2018-03-18T03:46:27.794Z,16.1
2018-03-18T03:47:17.809Z,16.1
2018-03-18T03:48:07.610Z,16.2
2018-03-18T03:48:57.942Z,16.1
2018-03-18T03:49:48.007Z,16.1
2018-03-18T03:50:37.773Z,16.1
2018-03-18T03:51:27.857Z,16.1
2018-03-18T03:52:17.898Z,16.1
2018-03-18T03:53:08.234Z,16.1
2018-03-18T03:53:58.304Z,16.1
2018-03-18T03:54:48.374Z,16.1
2018-03-18T03:55:38.419Z,16.1
2018-03-18T03:56:28.487Z,16.1
2018-03-18T03:57:18.527Z,16.1
2018-03-18T03:58:08.598Z,16.1
2018-03-18T03:58:58.368Z,16.1
2018-03-18T03:59:48.744Z,16.1
2018-03-18T04:00:38.500Z,16
2018-03-18T04:01:28.869Z,16
2018-03-18T04:02:18.608Z,16
2018-03-18T04:03:08.960Z,16
2018-03-18T04:03:58.761Z,16
2018-03-18T04:04:48.316Z,16
2018-03-18T04:05:38.579Z,16
2018-03-18T04:06:28.922Z,16
2018-03-18T04:07:18.769Z,16
2018-03-18T04:08:08.654Z,16
2018-03-18T04:08:58.825Z,16
2018-03-18T04:09:49.200Z,16
2018-03-18T04:10:38.671Z,16
2018-03-18T04:11:29.297Z,15.9
2018-03-18T04:12:19.080Z,15.9
2018-03-18T04:13:09.416Z,15.9
2018-03-18T04:13:58.589Z,15.9
2018-03-18T04:14:49.540Z,15.9
2018-03-18T04:15:38.736Z,15.9
2018-03-18T04:16:28.968Z,15.9
2018-03-18T04:17:19.754Z,15.9
2018-03-18T04:18:09.192Z,15.9
2018-03-18T04:18:59.552Z,15.9
2018-03-18T04:19:49.708Z,15.9
2018-03-18T04:20:39.476Z,15.9
2018-03-18T04:21:30.303Z,15.9
2018-03-18T04:22:20.102Z,15.9
2018-03-18T04:23:10.140Z,15.9
2018-03-18T04:24:00.494Z,15.9
2018-03-18T04:24:50.545Z,15.9
2018-03-18T04:25:40.264Z,15.9
2018-03-18T04:26:30.698Z,15.9
2018-03-18T04:27:20.441Z,15.9
2018-03-18T04:28:10.493Z,15.9
2018-03-18T04:28:59.949Z,15.9
2018-03-18T04:29:49.747Z,15.9
2018-03-18T04:30:40.380Z,15.9
2018-03-18T04:31:30.452Z,15.9
2018-03-18T04:32:20.796Z,15.9
2018-03-18T04:33:10.680Z,15.9
2018-03-18T04:34:00.905Z,15.9
2018-03-18T04:34:50.671Z,15.9
2018-03-18T04:35:41.319Z,15.9
2018-03-18T04:36:31.077Z,15.9
2018-03-18T04:37:21.469Z,15.9
2018-03-18T04:38:10.829Z,15.9
2018-03-18T04:39:01.546Z,15.9
2018-03-18T04:39:51.064Z,15.9
2018-03-18T04:40:41.417Z,16
2018-03-18T04:41:31.278Z,15.9
2018-03-18T04:42:20.649Z,16
2018-03-18T04:43:11.596Z,16
2018-03-18T04:44:01.361Z,16
2018-03-18T04:44:52.000Z,16
2018-03-18T04:45:41.761Z,16
2018-03-18T04:46:31.324Z,16
2018-03-18T04:47:21.619Z,16
2018-03-18T04:48:11.733Z,16
2018-03-18T04:49:01.816Z,16
2018-03-18T04:49:51.171Z,16.1
2018-03-18T04:50:42.548Z,16.1
2018-03-18T04:51:32.470Z,16.1
2018-03-18T04:52:22.526Z,16.1
2018-03-18T04:53:12.621Z,16.1
2018-03-18T04:54:02.093Z,16.1
2018-03-18T04:54:51.530Z,16.1
2018-03-18T04:55:42.461Z,16.1
2018-03-18T04:56:31.978Z,16.1
2018-03-18T04:57:22.598Z,16.1
2018-03-18T04:58:12.973Z,16.1
2018-03-18T04:59:02.232Z,16.1
2018-03-18T04:59:52.579Z,16.1
2018-03-18T05:00:42.261Z,16.1
2018-03-18T05:01:32.628Z,16.1
2018-03-18T05:02:22.676Z,16.1
2018-03-18T05:03:13.046Z,16.1
2018-03-18T05:04:02.611Z,16.1
2018-03-18T05:04:53.142Z,16.1
2018-03-18T05:05:43.199Z,16.1
2018-03-18T05:06:32.983Z,16.1
2018-03-18T05:07:23.042Z,16.1
2018-03-18T05:08:12.846Z,16.1
2018-03-18T05:09:03.163Z,16.1
2018-03-18T05:09:53.238Z,16.2
2018-03-18T05:10:42.796Z,16.2
2018-03-18T05:11:33.909Z,16.2
2018-03-18T05:12:23.411Z,16.3
2018-03-18T05:13:14.045Z,16.3
2018-03-18T05:14:03.531Z,16.3
2018-03-18T05:14:53.570Z,16.3
2018-03-18T05:15:43.353Z,16.3
2018-03-18T05:16:34.295Z,16.3
2018-03-18T05:17:23.361Z,16.3
2018-03-18T05:18:14.405Z,16.3
2018-03-18T05:19:04.497Z,16.3
2018-03-18T05:19:54.301Z,16.3
2018-03-18T05:20:43.803Z,16.3
2018-03-18T05:21:34.135Z,16.3
2018-03-18T05:22:23.928Z,16.3
2018-03-18T05:23:13.891Z,16.3
2018-03-18T05:24:04.523Z,16.3
2018-03-18T05:24:54.298Z,16.3
2018-03-18T05:25:44.365Z,16.3
2018-03-18T05:26:35.049Z,16.3
2018-03-18T05:27:25.045Z,16.3
2018-03-18T05:28:15.093Z,16.3
2018-03-18T05:29:04.110Z,16.3
2018-03-18T05:29:54.674Z,16.3
2018-03-18T05:30:44.729Z,16.3
2018-03-18T05:31:34.592Z,16.3
2018-03-18T05:32:25.221Z,16.3
2018-03-18T05:33:15.209Z,16.3
2018-03-18T05:34:04.975Z,16.3
2018-03-18T05:34:55.315Z,16.3
2018-03-18T05:35:45.372Z,16.4
2018-03-18T05:36:35.149Z,16.4
2018-03-18T05:37:25.217Z,16.4
2018-03-18T05:38:15.267Z,16.4
2018-03-18T05:39:05.509Z,16.4
2018-03-18T05:39:55.664Z,16.4
2018-03-18T05:40:45.748Z,16.4
2018-03-18T05:41:35.786Z,16.4
2018-03-18T05:42:25.829Z,16.4
2018-03-18T05:43:15.426Z,16.4
2018-03-18T05:44:05.493Z,16.5
2018-03-18T05:44:56.127Z,16.4
2018-03-18T05:45:45.806Z,16.5
2018-03-18T05:46:36.183Z,16.5
2018-03-18T05:47:25.826Z,16.5
2018-03-18T05:48:16.592Z,16.4
2018-03-18T05:49:06.147Z,16.4
2018-03-18T05:49:56.395Z,16.4
2018-03-18T05:50:45.975Z,16.4
2018-03-18T05:51:36.122Z,16.4
2018-03-18T05:52:26.550Z,16.4
2018-03-18T05:53:16.258Z,16.3
2018-03-18T05:54:06.726Z,16.3
2018-03-18T05:54:56.758Z,16.3
2018-03-18T05:55:46.341Z,16.3
2018-03-18T05:56:36.591Z,16.3
2018-03-18T05:57:26.451Z,16.2
2018-03-18T05:58:17.023Z,16.2
2018-03-18T05:59:07.346Z,16.2
2018-03-18T05:59:56.740Z,16.2
2018-03-18T06:00:47.200Z,16.1
2018-03-18T06:01:37.236Z,16.1
2018-03-18T06:02:26.865Z,16.1
2018-03-18T06:03:16.885Z,16.1
2018-03-18T06:04:07.452Z,16.1
2018-03-18T06:04:57.272Z,16.1
2018-03-18T06:05:47.249Z,16.1
2018-03-18T06:06:37.328Z,16.1
2018-03-18T06:07:27.182Z,16.1
2018-03-18T06:08:17.730Z,16.1
2018-03-18T06:09:06.807Z,16
2018-03-18T06:09:58.137Z,16
2018-03-18T06:10:47.125Z,16.1
2018-03-18T06:11:37.077Z,16.1
2018-03-18T06:12:27.460Z,16.1
2018-03-18T06:13:17.617Z,16.1
2018-03-18T06:14:07.260Z,16.1
2018-03-18T06:14:57.813Z,16.2
2018-03-18T06:15:47.789Z,16.2
2018-03-18T06:16:37.854Z,16.3
2018-03-18T06:17:27.423Z,16.3
2018-03-18T06:18:17.953Z,16.3
2018-03-18T06:19:08.022Z,16.3
2018-03-18T06:19:57.862Z,16.4
2018-03-18T06:20:47.956Z,16.4
2018-03-18T06:21:37.718Z,16.4
2018-03-18T06:22:28.277Z,16.5
2018-03-18T06:23:18.609Z,16.5
2018-03-18T06:24:08.666Z,16.5
2018-03-18T06:24:57.980Z,16.5
2018-03-18T06:25:48.508Z,16.5
2018-03-18T06:26:38.066Z,16.5
2018-03-18T06:27:28.424Z,16.5
2018-03-18T06:28:18.673Z,16.4
2018-03-18T06:29:08.749Z,16.4
2018-03-18T06:29:59.093Z,16.4
2018-03-18T06:30:48.861Z,16.3
2018-03-18T06:31:39.198Z,16.2
2018-03-18T06:32:28.485Z,16.1
2018-03-18T06:33:19.036Z,15.9
2018-03-18T06:34:08.622Z,15.8
2018-03-18T06:34:59.161Z,15.8
2018-03-18T06:35:49.230Z,15.6
2018-03-18T06:36:39.295Z,15.6
2018-03-18T06:37:29.506Z,15.5
2018-03-18T06:38:18.998Z,15.4
2018-03-18T06:39:09.566Z,15.4
2018-03-18T06:39:59.518Z,15.3
2018-03-18T06:40:49.600Z,15.2
2018-03-18T06:41:39.729Z,15.1
2018-03-18T06:42:29.420Z,15.1
2018-03-18T06:43:20.248Z,15
2018-03-18T06:44:10.015Z,14.9
2018-03-18T06:44:59.895Z,14.9
2018-03-18T06:45:50.221Z,14.8
2018-03-18T06:46:39.698Z,14.8
2018-03-18T06:47:30.380Z,14.8
2018-03-18T06:48:20.125Z,14.7
2018-03-18T06:49:09.989Z,14.6
2018-03-18T06:50:00.250Z,14.6
2018-03-18T06:50:50.020Z,14.6
2018-03-18T06:51:40.372Z,14.5
2018-03-18T06:52:30.237Z,14.5
2018-03-18T06:53:20.495Z,14.4
2018-03-18T06:54:10.349Z,14.4
2018-03-18T06:55:01.081Z,14.4
2018-03-18T06:55:50.672Z,14.4
2018-03-18T06:56:41.509Z,14.3
2018-03-18T06:57:30.802Z,14.3
2018-03-18T06:58:20.264Z,14.3
2018-03-18T06:59:10.419Z,14.3
2018-03-18T07:00:01.249Z,14.3
2018-03-18T07:00:51.321Z,14.2
2018-03-18T07:01:40.982Z,14.1
2018-03-18T07:02:31.163Z,14.1
2018-03-18T07:03:21.686Z,14.1
2018-03-18T07:04:11.266Z,14.1
2018-03-18T07:05:01.126Z,14
2018-03-18T07:05:51.894Z,14
2018-03-18T07:06:41.656Z,13.9
2018-03-18T07:07:31.218Z,13.9
2018-03-18T07:08:21.487Z,13.9
2018-03-18T07:09:11.718Z,13.8
2018-03-18T07:10:01.891Z,13.8
2018-03-18T07:10:52.240Z,13.8
2018-03-18T07:11:42.324Z,13.7
2018-03-18T07:12:32.148Z,13.7
2018-03-18T07:13:22.716Z,13.7
2018-03-18T07:14:12.214Z,13.6
2018-03-18T07:15:02.249Z,13.6
2018-03-18T07:15:51.996Z,13.6
2018-03-18T07:16:42.633Z,13.6
2018-03-18T07:17:32.443Z,13.5
2018-03-18T07:18:21.997Z,13.4
2018-03-18T07:19:12.353Z,13.4
2018-03-18T07:20:02.658Z,13.4
2018-03-18T07:20:53.263Z,13.4
2018-03-18T07:21:43.088Z,13.3
2018-03-18T07:22:33.383Z,13.3
2018-03-18T07:23:23.427Z,13.3
2018-03-18T07:24:12.617Z,13.3
2018-03-18T07:25:03.055Z,13.3
2018-03-18T07:25:53.325Z,13.2
2018-03-18T07:26:42.901Z,13.1
2018-03-18T07:27:33.453Z,13.1
2018-03-18T07:28:23.500Z,13.1
2018-03-18T07:29:13.295Z,13
2018-03-18T07:30:03.132Z,13
2018-03-18T07:30:53.733Z,12.9
2018-03-18T07:31:43.156Z,12.9
2018-03-18T07:32:33.113Z,12.9
2018-03-18T07:33:23.863Z,12.9
2018-03-18T07:34:14.019Z,12.9
2018-03-18T07:35:03.785Z,12.8
2018-03-18T07:35:54.139Z,12.8
2018-03-18T07:36:43.829Z,12.8
2018-03-18T07:37:33.881Z,12.8
2018-03-18T07:38:24.216Z,12.8
2018-03-18T07:39:14.590Z,12.7
2018-03-18T07:40:03.950Z,12.7
2018-03-18T07:40:53.911Z,12.7
2018-03-18T07:41:44.174Z,12.6
2018-03-18T07:42:34.519Z,12.6
2018-03-18T07:43:24.009Z,12.6
2018-03-18T07:44:14.915Z,12.6
2018-03-18T07:45:04.746Z,12.6
2018-03-18T07:45:55.031Z,12.6
2018-03-18T07:46:44.844Z,12.6
2018-03-18T07:47:34.319Z,12.5
2018-03-18T07:48:24.948Z,12.5
2018-03-18T07:49:14.714Z,12.5
2018-03-18T07:50:05.058Z,12.5
2018-03-18T07:50:55.104Z,12.5
2018-03-18T07:51:44.974Z,12.4
2018-03-18T07:52:35.268Z,12.4
2018-03-18T07:53:25.118Z,12.4
2018-03-18T07:54:15.373Z,12.4
2018-03-18T07:55:05.144Z,12.4
2018-03-18T07:55:54.610Z,12.4
2018-03-18T07:56:45.829Z,12.4
2018-03-18T07:57:35.110Z,12.4
2018-03-18T07:58:25.653Z,12.4
2018-03-18T07:59:15.443Z,12.4
2018-03-18T08:00:05.496Z,12.4
2018-03-18T08:00:56.165Z,12.4
2018-03-18T08:01:45.902Z,12.4
2018-03-18T08:02:36.255Z,12.4
2018-03-18T08:03:26.018Z,12.4
2018-03-18T08:04:15.636Z,12.4
2018-03-18T08:05:06.147Z,12.4
2018-03-18T08:05:56.187Z,12.4
2018-03-18T08:06:46.269Z,12.3
2018-03-18T08:07:35.940Z,12.3
2018-03-18T08:08:26.130Z,12.3
2018-03-18T08:09:16.450Z,12.3
2018-03-18T08:10:06.512Z,12.3
2018-03-18T08:10:56.090Z,12.3
2018-03-18T08:11:46.435Z,12.3
2018-03-18T08:12:36.457Z,12.3
2018-03-18T08:13:26.467Z,12.3
2018-03-18T08:14:15.935Z,12.3
2018-03-18T08:15:06.856Z,12.3
2018-03-18T08:15:56.935Z,12.3
2018-03-18T08:16:47.324Z,12.3
2018-03-18T08:17:37.027Z,12.3
2018-03-18T08:18:27.120Z,12.3
2018-03-18T08:19:16.879Z,12.3
2018-03-18T08:20:07.587Z,12.3
2018-03-18T08:20:57.448Z,12.3
2018-03-18T08:21:47.362Z,12.3
2018-03-18T08:22:37.425Z,12.3
2018-03-18T08:23:27.739Z,12.3
2018-03-18T08:24:17.538Z,12.3
2018-03-18T08:25:07.888Z,12.3
2018-03-18T08:25:57.932Z,12.3
2018-03-18T08:26:47.733Z,12.3
2018-03-18T08:27:37.771Z,12.3
2018-03-18T08:28:27.836Z,12.2
2018-03-18T08:29:17.583Z,12.2
2018-03-18T08:30:07.949Z,12.2
2018-03-18T08:30:58.006Z,12.2
2018-03-18T08:31:48.373Z,12.2
2018-03-18T08:32:38.417Z,12.2
2018-03-18T08:33:28.497Z,12.1
2018-03-18T08:34:18.855Z,12.1
2018-03-18T08:35:08.311Z,12.1
2018-03-18T08:35:58.607Z,12.1
2018-03-18T08:36:48.436Z,12.1
2018-03-18T08:37:38.524Z,12.1
2018-03-18T08:38:28.831Z,12.1
2018-03-18T08:39:18.903Z,12.1
2018-03-18T08:40:08.935Z,12.1
2018-03-18T08:40:59.008Z,12.1
2018-03-18T08:41:48.878Z,12.1
2018-03-18T08:42:38.846Z,12.1
2018-03-18T08:43:28.728Z,12.1
2018-03-18T08:44:19.250Z,12.1
2018-03-18T08:45:09.353Z,12.1
2018-03-18T08:45:59.079Z,12.1
2018-03-18T08:46:49.678Z,12.1
2018-03-18T08:47:39.525Z,12.1
2018-03-18T08:48:29.278Z,12.1
2018-03-18T08:49:19.338Z,12
2018-03-18T08:50:09.408Z,12
2018-03-18T08:50:59.175Z,12
2018-03-18T08:51:49.784Z,12
2018-03-18T08:52:39.871Z,12
2018-03-18T08:53:29.617Z,12
2018-03-18T08:54:20.032Z,12
2018-03-18T08:55:09.761Z,12
2018-03-18T08:56:00.115Z,12
2018-03-18T08:56:50.146Z,12
2018-03-18T08:57:39.959Z,11.9
2018-03-18T08:58:29.712Z,11.9
2018-03-18T08:59:20.337Z,11.9
2018-03-18T09:00:10.104Z,11.9
2018-03-18T09:01:00.444Z,11.9
2018-03-18T09:01:50.519Z,11.9
2018-03-18T09:02:39.619Z,11.9
2018-03-18T09:03:30.089Z,11.9
2018-03-18T09:04:20.227Z,11.9
2018-03-18T09:05:09.997Z,11.9
2018-03-18T09:06:00.243Z,11.9
2018-03-18T09:06:50.692Z,11.9
2018-03-18T09:07:40.476Z,11.9
2018-03-18T09:08:30.436Z,11.9
2018-03-18T09:09:20.199Z,11.9
2018-03-18T09:10:10.119Z,11.9
2018-03-18T09:11:00.632Z,11.8
2018-03-18T09:11:50.485Z,11.8
2018-03-18T09:12:40.441Z,11.9
2018-03-18T09:13:30.899Z,11.8
2018-03-18T09:14:21.177Z,11.8
2018-03-18T09:15:11.503Z,11.8
2018-03-18T09:16:00.974Z,11.8
2018-03-18T09:16:51.336Z,11.8
2018-03-18T09:17:40.214Z,11.8
2018-03-18T09:18:31.543Z,11.8
2018-03-18T09:19:21.525Z,11.8
2018-03-18T09:20:11.668Z,11.8
2018-03-18T09:21:01.340Z,11.8
2018-03-18T09:21:51.003Z,11.8
2018-03-18T09:22:42.063Z,11.9
2018-03-18T09:23:31.710Z,11.9
2018-03-18T09:24:21.903Z,11.9
2018-03-18T09:25:11.157Z,11.9
2018-03-18T09:26:01.595Z,11.9
2018-03-18T09:26:52.104Z,11.9
2018-03-18T09:27:42.113Z,12
2018-03-18T09:28:31.880Z,12
2018-03-18T09:29:22.238Z,12
2018-03-18T09:30:12.093Z,12.1
2018-03-18T09:31:02.368Z,12.1
2018-03-18T09:31:52.441Z,12.1
2018-03-18T09:32:42.258Z,12.2
2018-03-18T09:33:32.132Z,12.2
2018-03-18T09:34:22.896Z,12.3
2018-03-18T09:35:11.755Z,12.3
2018-03-18T09:36:02.438Z,12.4
2018-03-18T09:36:52.780Z,12.4
2018-03-18T09:37:42.356Z,12.4
2018-03-18T09:38:32.502Z,12.5
2018-03-18T09:39:22.673Z,12.5
2018-03-18T09:40:12.442Z,12.6
2018-03-18T09:41:03.087Z,12.6
2018-03-18T09:41:52.840Z,12.6
2018-03-18T09:42:43.282Z,12.7
2018-03-18T09:43:33.033Z,12.6
2018-03-18T09:44:22.725Z,12.7
2018-03-18T09:45:13.375Z,12.7
2018-03-18T09:46:03.440Z,12.8
2018-03-18T09:46:53.518Z,12.8
2018-03-18T09:47:43.256Z,12.8
2018-03-18T09:48:33.425Z,12.8
2018-03-18T09:49:23.408Z,12.8
2018-03-18T09:50:13.334Z,12.9
2018-03-18T09:51:03.883Z,12.9
2018-03-18T09:51:53.275Z,12.9
2018-03-18T09:52:43.917Z,12.9
2018-03-18T09:53:33.381Z,12.9
2018-03-18T09:54:23.440Z,12.9
2018-03-18T09:55:14.004Z,13
2018-03-18T09:56:03.483Z,13
2018-03-18T09:56:54.116Z,13
2018-03-18T09:57:43.683Z,13
2018-03-18T09:58:33.637Z,13
2018-03-18T09:59:23.818Z,13
2018-03-18T10:00:14.501Z,13
2018-03-18T10:01:04.029Z,13
2018-03-18T10:01:54.572Z,13
2018-03-18T10:02:44.351Z,13
2018-03-18T10:03:33.915Z,13
2018-03-18T10:04:24.486Z,13
2018-03-18T10:05:14.565Z,13
2018-03-18T10:06:04.009Z,12.9
2018-03-18T10:06:54.933Z,12.9
2018-03-18T10:07:44.516Z,12.9
2018-03-18T10:08:34.495Z,12.9
2018-03-18T10:09:25.161Z,12.9
2018-03-18T10:10:14.875Z,12.9
2018-03-18T10:11:05.251Z,12.9
2018-03-18T10:11:55.124Z,12.8
2018-03-18T10:12:44.755Z,12.8
2018-03-18T10:13:35.476Z,12.8
2018-03-18T10:14:24.900Z,12.8
2018-03-18T10:15:14.757Z,12.8
2018-03-18T10:16:05.412Z,12.8
2018-03-18T10:16:54.961Z,12.8
2018-03-18T10:17:45.435Z,12.7
2018-03-18T10:18:35.492Z,12.7
2018-03-18T10:19:25.248Z,12.7
2018-03-18T10:20:15.534Z,12.7
2018-03-18T10:21:05.374Z,12.7
2018-03-18T10:21:56.010Z,12.6
2018-03-18T10:22:46.328Z,12.6
2018-03-18T10:23:36.165Z,12.6
2018-03-18T10:24:26.507Z,12.6
2018-03-18T10:25:16.272Z,12.6
2018-03-18T10:26:06.588Z,12.6
2018-03-18T10:26:56.645Z,12.6
2018-03-18T10:27:46.416Z,12.6
2018-03-18T10:28:36.765Z,12.6
2018-03-18T10:29:26.819Z,12.6
2018-03-18T10:30:16.645Z,12.6
2018-03-18T10:31:07.028Z,12.6
2018-03-18T10:31:57.006Z,12.5
2018-03-18T10:32:47.064Z,12.5
2018-03-18T10:33:36.620Z,12.5
2018-03-18T10:34:27.236Z,12.5
2018-03-18T10:35:17.013Z,12.5
2018-03-18T10:36:07.309Z,12.4
2018-03-18T10:36:56.524Z,12.4
2018-03-18T10:37:47.431Z,12.4
2018-03-18T10:38:37.489Z,12.4
2018-03-18T10:39:27.544Z,12.4
2018-03-18T10:40:17.606Z,12.4
2018-03-18T10:41:07.387Z,12.4
2018-03-18T10:41:58.137Z,12.4
2018-03-18T10:42:47.817Z,12.4
2018-03-18T10:43:37.844Z,12.4
2018-03-18T10:44:27.903Z,12.4
2018-03-18T10:45:17.691Z,12.4
2018-03-18T10:46:07.484Z,12.4
2018-03-18T10:46:57.143Z,12.4
2018-03-18T10:47:47.901Z,12.4
2018-03-18T10:48:38.237Z,12.4
2018-03-18T10:49:27.236Z,12.4
2018-03-18T10:50:18.153Z,12.4
2018-03-18T10:51:08.123Z,12.4
2018-03-18T10:51:57.783Z,12.4
2018-03-18T10:52:47.742Z,12.4
2018-03-18T10:53:38.011Z,12.4
2018-03-18T10:54:28.385Z,12.4
2018-03-18T10:55:18.154Z,12.4
2018-03-18T10:56:08.000Z,12.4
2018-03-18T10:56:58.238Z,12.4
2018-03-18T10:57:48.620Z,12.4
2018-03-18T10:58:38.953Z,12.4
2018-03-18T10:59:29.000Z,12.4
2018-03-18T11:00:19.057Z,12.4
2018-03-18T11:01:08.847Z,12.4
2018-03-18T11:01:58.940Z,12.4
2018-03-18T11:02:49.232Z,12.4
2018-03-18T11:03:39.297Z,12.4
2018-03-18T11:04:29.357Z,12.4
2018-03-18T11:05:19.434Z,12.4
2018-03-18T11:06:09.495Z,12.4
2018-03-18T11:06:59.558Z,12.3
2018-03-18T11:07:49.322Z,12.4
2018-03-18T11:08:39.713Z,12.3
2018-03-18T11:09:29.712Z,12.3